Time;durP1;ratioP1;P1;durP2;ratioP2;P2;SDS_P1;SDS_P2;PMS_P1;PMS_P2;Temp;Humidity;BMP_temperature;BMP_pressure;BME280_temperature;BME280_humidity;BME280_pressure;Samples;Min_cycle;Max_cycle;Signal;HPM_P1;HPM_P2
2023/01/13 00:00:48;;;;;;;31.63;4.55;;;;;;;;;;5048234;28;20531;-73
2023/01/13 00:03:14;;;;;;;24.25;4.45;;;;;;;;;;5030642;28;20469;-73
2023/01/13 00:05:40;;;;;;;29.92;4.65;;;;;;;;;;5047895;28;20477;-73
2023/01/13 00:08:06;;;;;;;18.38;3.95;;;;;;;;;;5046315;28;20197;-73
2023/01/13 00:10:33;;;;;;;15.48;3.63;;;;;;;;;;5062165;28;20054;-73
2023/01/13 00:12:59;;;;;;;21.33;4.28;;;;;;;;;;5043727;28;20048;-73
2023/01/13 00:15:25;;;;;;;35.95;4.57;;;;;;;;;;5040159;28;20056;-73
2023/01/13 00:17:53;;;;;;;26.40;5.00;;;;;;;;;;5049087;28;20052;-74
2023/01/13 00:20:19;;;;;;;30.45;4.60;;;;;;;;;;5048147;28;21051;-74
2023/01/13 00:22:45;;;;;;;26.08;5.57;;;;;;;;;;5048542;28;20040;-74
2023/01/13 00:25:11;;;;;;;28.58;5.95;;;;;;;;;;5058626;28;20132;-74
2023/01/13 00:27:37;;;;;;;16.85;2.90;;;;;;;;;;5050377;28;20592;-74
2023/01/13 00:30:03;;;;;;;25.50;3.92;;;;;;;;;;5046662;28;20040;-73
2023/01/13 00:32:29;;;;;;;25.17;4.93;;;;;;;;;;5048785;28;20079;-72
2023/01/13 00:34:55;;;;;;;20.80;4.50;;;;;;;;;;5048508;28;20082;-73
2023/01/13 00:37:22;;;;;;;16.88;3.75;;;;;;;;;;5049392;28;20040;-73
2023/01/13 00:39:48;;;;;;;36.38;5.40;;;;;;;;;;5046134;28;20086;-73
2023/01/13 00:44:59;;;;;;;24.70;4.57;;;;;;;;;;5049465;28;20071;-73
2023/01/13 00:47:25;;;;;;;29.05;5.53;;;;;;;;;;5053065;28;20537;-73
2023/01/13 00:49:51;;;;;;;20.98;4.07;;;;;;;;;;5053190;28;21164;-73
2023/01/13 00:52:17;;;;;;;43.30;7.38;;;;;;;;;;5076331;28;20067;-73
2023/01/13 00:54:43;;;;;;;30.70;5.35;;;;;;;;;;5071944;28;20044;-72
2023/01/13 00:57:09;;;;;;;25.05;4.60;;;;;;;;;;5075990;28;20060;-73
2023/01/13 00:59:35;;;;;;;34.95;5.32;;;;;;;;;;5031688;28;20048;-73
2023/01/13 01:02:02;;;;;;;31.73;5.13;;;;;;;;;;5051971;28;20206;-74
2023/01/13 01:04:28;;;;;;;37.55;6.38;;;;;;;;;;5052298;28;20084;-73
2023/01/13 01:06:54;;;;;;;31.05;5.22;;;;;;;;;;5053813;28;20714;-73
2023/01/13 01:09:20;;;;;;;38.40;5.75;;;;;;;;;;5052524;28;20048;-72
2023/01/13 01:11:46;;;;;;;34.83;6.22;;;;;;;;;;5049838;28;20039;-73
2023/01/13 01:14:13;;;;;;;29.90;5.65;;;;;;;;;;5043616;28;21024;-73
2023/01/13 01:16:40;;;;;;;37.38;5.88;;;;;;;;;;5051235;28;20067;-73
2023/01/13 01:19:07;;;;;;;35.55;6.32;;;;;;;;;;5052942;28;20154;-73
2023/01/13 01:21:33;;;;;;;27.60;4.85;;;;;;;;;;5033283;28;20737;-73
2023/01/13 01:24:01;;;;;;;32.50;6.43;;;;;;;;;;5034267;28;20048;-73
2023/01/13 01:26:27;;;;;;;37.63;5.88;;;;;;;;;;5049850;28;20144;-73
2023/01/13 01:28:54;;;;;;;25.05;4.53;;;;;;;;;;5035165;28;20040;-73
2023/01/13 01:31:24;;;;;;;44.50;7.07;;;;;;;;;;5047312;28;20380;-73
2023/01/13 01:33:51;;;;;;;40.13;7.13;;;;;;;;;;5047851;28;20044;-73
2023/01/13 01:36:18;;;;;;;31.58;6.15;;;;;;;;;;5038472;28;20182;-73
2023/01/13 01:38:45;;;;;;;36.35;4.45;;;;;;;;;;5053650;28;20149;-73
2023/01/13 01:41:19;;;;;;;36.63;8.10;;;;;;;;;;5055148;28;20067;-73
2023/01/13 01:44:09;;;;;;;37.50;6.35;;;;;;;;;;5054828;28;21469;-73
2023/01/13 01:46:39;;;;;;;30.40;5.32;;;;;;;;;;5044258;28;20131;-73
2023/01/13 01:49:12;;;;;;;38.88;6.40;;;;;;;;;;5052781;28;20040;-73
2023/01/13 01:51:41;;;;;;;40.28;5.93;;;;;;;;;;5050797;28;20052;-73
2023/01/13 01:54:09;;;;;;;35.40;5.15;;;;;;;;;;5037384;28;20139;-73
2023/01/13 01:56:35;;;;;;;41.65;6.63;;;;;;;;;;5061725;28;20040;-73
2023/01/13 01:59:01;;;;;;;31.80;5.05;;;;;;;;;;5038801;28;20153;-73
2023/01/13 02:01:27;;;;;;;32.67;6.00;;;;;;;;;;5031701;28;20079;-73
2023/01/13 02:03:57;;;;;;;36.40;5.93;;;;;;;;;;5027730;28;20630;-73
2023/01/13 02:06:23;;;;;;;29.30;5.35;;;;;;;;;;5035264;28;20408;-73
2023/01/13 02:08:49;;;;;;;28.83;4.85;;;;;;;;;;5046088;28;20055;-73
2023/01/13 02:12:28;;;;;;;38.55;5.93;;;;;;;;;;5015748;28;20044;-73
2023/01/13 02:14:12;;;;;;;23.58;3.97;;;;;;;;;;5047475;28;20055;-73
2023/01/13 02:16:40;;;;;;;31.30;5.63;;;;;;;;;;5050449;28;20052;-73
2023/01/13 02:19:15;;;;;;;34.60;5.22;;;;;;;;;;5051062;28;20043;-74
2023/01/13 02:21:53;;;;;;;25.65;5.07;;;;;;;;;;5046590;28;21048;-73
2023/01/13 02:27:09;;;;;;;29.48;5.00;;;;;;;;;;5048330;28;20050;-74
2023/01/13 02:32:45;;;;;;;29.70;5.60;;;;;;;;;;5045946;28;20051;-74
2023/01/13 02:35:11;;;;;;;42.53;5.57;;;;;;;;;;5051339;28;20048;-72
2023/01/13 02:37:40;;;;;;;34.17;5.18;;;;;;;;;;5068238;28;20044;-74
2023/01/13 02:40:17;;;;;;;32.88;5.03;;;;;;;;;;5072624;28;20036;-73
2023/01/13 02:46:03;;;;;;;23.67;4.50;;;;;;;;;;5051611;28;20123;-74
2023/01/13 02:48:30;;;;;;;37.35;5.88;;;;;;;;;;4993657;28;20139;-74
2023/01/13 02:50:59;;;;;;;29.17;5.00;;;;;;;;;;5053149;28;20044;-72
2023/01/13 02:53:33;;;;;;;31.40;4.85;;;;;;;;;;5051384;28;20513;-72
2023/01/13 02:56:01;;;;;;;28.80;6.00;;;;;;;;;;5036967;28;20048;-73
2023/01/13 02:58:28;;;;;;;26.50;4.68;;;;;;;;;;5049456;28;20048;-73
2023/01/13 03:00:54;;;;;;;37.95;5.95;;;;;;;;;;5048355;28;20056;-73
2023/01/13 03:03:20;;;;;;;33.97;5.95;;;;;;;;;;5050341;28;20733;-73
2023/01/13 03:05:49;;;;;;;27.90;4.70;;;;;;;;;;5049364;28;20131;-73
2023/01/13 03:08:21;;;;;;;18.02;3.92;;;;;;;;;;5049123;28;20098;-73
2023/01/13 03:10:50;;;;;;;39.88;6.63;;;;;;;;;;5048879;28;21294;-73
2023/01/13 03:13:26;;;;;;;21.20;5.22;;;;;;;;;;5047736;28;20042;-73
2023/01/13 03:15:52;;;;;;;31.80;5.45;;;;;;;;;;5046950;28;21477;-73
2023/01/13 03:18:23;;;;;;;45.53;7.07;;;;;;;;;;5049743;28;20055;-73
2023/01/13 03:20:55;;;;;;;38.15;6.10;;;;;;;;;;5044330;28;20546;-73
2023/01/13 03:23:27;;;;;;;39.67;6.00;;;;;;;;;;5044011;28;20674;-73
2023/01/13 03:25:56;;;;;;;35.30;5.95;;;;;;;;;;5048502;28;20162;-73
2023/01/13 03:28:27;;;;;;;27.63;4.97;;;;;;;;;;5048910;28;20385;-73
2023/01/13 03:30:57;;;;;;;38.97;6.18;;;;;;;;;;5044853;28;20056;-73
2023/01/13 03:33:26;;;;;;;31.42;4.72;;;;;;;;;;5044176;28;20768;-73
2023/01/13 03:35:55;;;;;;;26.58;5.00;;;;;;;;;;5043575;28;20085;-73
2023/01/13 03:38:23;;;;;;;20.42;3.88;;;;;;;;;;5050041;28;20079;-72
2023/01/13 03:40:55;;;;;;;21.88;4.82;;;;;;;;;;5050863;28;20492;-73
2023/01/13 03:44:21;;;;;;;20.13;4.65;;;;;;;;;;5047891;28;20043;-74
2023/01/13 03:46:27;;;;;;;22.05;4.30;;;;;;;;;;5036694;28;20678;-72
2023/01/13 03:48:57;;;;;;;23.55;4.63;;;;;;;;;;5048021;28;20044;-73
2023/01/13 03:51:24;;;;;;;30.92;5.25;;;;;;;;;;5046050;28;20040;-73
2023/01/13 03:53:56;;;;;;;29.75;4.95;;;;;;;;;;5050485;28;20035;-73
2023/01/13 03:56:43;;;;;;;26.45;4.78;;;;;;;;;;5045599;28;20036;-73
2023/01/13 03:59:11;;;;;;;27.83;5.43;;;;;;;;;;5048934;28;20411;-73
2023/01/13 04:01:50;;;;;;;32.20;5.00;;;;;;;;;;5033826;28;20561;-73
2023/01/13 04:04:18;;;;;;;20.45;4.13;;;;;;;;;;5047540;28;20090;-73
2023/01/13 04:06:56;;;;;;;22.63;3.85;;;;;;;;;;5045229;28;20040;-73
2023/01/13 04:09:40;;;;;;;20.45;3.65;;;;;;;;;;5031853;28;20076;-73
2023/01/13 04:12:20;;;;;;;27.98;4.60;;;;;;;;;;5046001;28;20120;-73
2023/01/13 04:14:46;;;;;;;37.58;4.50;;;;;;;;;;5037930;28;20067;-74
2023/01/13 04:17:13;;;;;;;31.90;5.22;;;;;;;;;;5052132;28;20043;-74
2023/01/13 04:19:39;;;;;;;28.88;4.68;;;;;;;;;;5049367;28;20049;-74
2023/01/13 04:22:05;;;;;;;24.88;4.53;;;;;;;;;;5052719;28;20129;-74
2023/01/13 04:24:31;;;;;;;37.83;6.40;;;;;;;;;;5060989;28;20110;-74
2023/01/13 04:26:57;;;;;;;30.92;6.00;;;;;;;;;;5081115;28;20062;-74
2023/01/13 04:29:23;;;;;;;36.88;6.20;;;;;;;;;;5051158;28;20051;-73
2023/01/13 04:31:49;;;;;;;24.42;4.47;;;;;;;;;;5047547;28;20040;-73
2023/01/13 04:34:15;;;;;;;23.02;4.60;;;;;;;;;;5047132;28;20480;-73
2023/01/13 04:36:41;;;;;;;21.48;4.35;;;;;;;;;;5046400;28;20045;-73
2023/01/13 04:39:07;;;;;;;43.65;5.78;;;;;;;;;;5030389;28;20105;-73
2023/01/13 04:44:18;;;;;;;28.25;5.35;;;;;;;;;;5043398;28;20056;-73
2023/01/13 04:46:44;;;;;;;37.47;5.93;;;;;;;;;;5045225;28;20143;-73
2023/01/13 04:49:10;;;;;;;20.95;4.55;;;;;;;;;;5048698;28;20468;-73
2023/01/13 04:51:36;;;;;;;38.40;4.95;;;;;;;;;;5048918;28;20036;-73
2023/01/13 04:54:02;;;;;;;22.98;4.80;;;;;;;;;;5045710;28;21660;-73
2023/01/13 04:56:28;;;;;;;35.92;5.78;;;;;;;;;;5025165;28;20048;-73
2023/01/13 04:58:54;;;;;;;27.98;4.60;;;;;;;;;;5045523;28;20047;-74
2023/01/13 05:01:20;;;;;;;38.45;5.50;;;;;;;;;;5026318;28;20668;-73
2023/01/13 05:03:46;;;;;;;25.13;4.68;;;;;;;;;;5047385;28;20127;-73
2023/01/13 05:06:13;;;;;;;20.80;4.13;;;;;;;;;;5043132;28;20044;-73
2023/01/13 05:08:39;;;;;;;25.15;3.85;;;;;;;;;;5046991;28;20040;-73
2023/01/13 05:16:58;;;;;;;23.90;4.43;;;;;;;;;;5045201;28;20044;-73
2023/01/13 05:19:20;;;;;;;32.67;6.35;;;;;;;;;;5047743;28;19973;-73
2023/01/13 05:27:16;;;;;;;30.83;4.82;;;;;;;;;;5050031;28;21522;-74
2023/01/13 05:29:42;;;;;;;28.05;4.97;;;;;;;;;;5046811;28;20040;-73
2023/01/13 05:32:11;;;;;;;29.05;5.20;;;;;;;;;;5053218;28;20673;-72
2023/01/13 05:34:37;;;;;;;22.67;3.88;;;;;;;;;;5048130;28;20051;-73
2023/01/13 05:37:06;;;;;;;31.60;4.30;;;;;;;;;;5054163;28;20044;-73
2023/01/13 05:43:18;;;;;;;24.02;4.50;;;;;;;;;;5049884;28;20155;-73
2023/01/13 05:45:03;;;;;;;31.45;4.53;;;;;;;;;;5056171;28;20048;-72
2023/01/13 05:47:29;;;;;;;25.00;4.22;;;;;;;;;;5059363;28;21064;-73
2023/01/13 05:49:55;;;;;;;22.17;4.78;;;;;;;;;;5040966;28;20048;-72
2023/01/13 05:52:21;;;;;;;28.15;4.68;;;;;;;;;;5042768;28;20036;-72
2023/01/13 05:54:47;;;;;;;22.60;4.57;;;;;;;;;;5041449;28;20082;-73
2023/01/13 05:57:13;;;;;;;19.20;4.95;;;;;;;;;;5060936;28;20138;-73
2023/01/13 05:59:39;;;;;;;20.05;4.15;;;;;;;;;;5044602;28;20075;-73
2023/01/13 06:02:05;;;;;;;28.38;4.18;;;;;;;;;;5069709;28;20036;-74
2023/01/13 06:04:32;;;;;;;23.02;3.88;;;;;;;;;;5080529;28;20051;-72
2023/01/13 06:07:04;;;;;;;24.50;4.40;;;;;;;;;;5071818;28;20488;-72
2023/01/13 06:09:30;;;;;;;28.30;4.13;;;;;;;;;;5052919;28;20479;-73
2023/01/13 06:11:56;;;;;;;25.77;4.00;;;;;;;;;;5061197;28;20132;-72
2023/01/13 06:14:22;;;;;;;18.17;2.95;;;;;;;;;;5057466;28;20126;-73
2023/01/13 06:16:48;;;;;;;21.90;3.83;;;;;;;;;;5056989;28;20542;-73
2023/01/13 06:19:14;;;;;;;32.38;5.32;;;;;;;;;;5055833;28;20055;-74
2023/01/13 06:21:43;;;;;;;20.27;3.67;;;;;;;;;;5041650;28;20060;-74
2023/01/13 06:24:10;;;;;;;20.45;4.35;;;;;;;;;;5062652;28;20041;-72
2023/01/13 06:26:38;;;;;;;13.73;3.22;;;;;;;;;;5057820;28;20044;-73
2023/01/13 06:29:05;;;;;;;17.10;3.10;;;;;;;;;;5042791;28;20098;-73
2023/01/13 06:31:32;;;;;;;28.38;3.55;;;;;;;;;;5056304;28;20101;-73
2023/01/13 06:34:01;;;;;;;20.42;3.70;;;;;;;;;;5046796;28;20459;-72
2023/01/13 06:36:35;;;;;;;31.38;5.05;;;;;;;;;;5057068;28;20796;-74
2023/01/13 06:39:01;;;;;;;21.05;4.72;;;;;;;;;;5057024;28;20092;-74
2023/01/13 06:44:18;;;;;;;24.23;3.65;;;;;;;;;;5054882;28;20064;-72
2023/01/13 06:46:44;;;;;;;26.58;4.00;;;;;;;;;;5052246;28;20044;-72
2023/01/13 06:49:10;;;;;;;22.13;5.05;;;;;;;;;;5053443;28;20119;-73
2023/01/13 06:51:36;;;;;;;33.22;5.47;;;;;;;;;;5054966;28;20055;-73
2023/01/13 06:54:02;;;;;;;14.43;3.25;;;;;;;;;;5053528;28;20043;-73
2023/01/13 06:56:28;;;;;;;33.88;4.28;;;;;;;;;;5056317;28;20090;-72
2023/01/13 06:58:54;;;;;;;28.45;3.72;;;;;;;;;;5053078;28;20075;-73
2023/01/13 07:01:20;;;;;;;19.98;3.95;;;;;;;;;;5055074;28;20075;-73
2023/01/13 07:03:46;;;;;;;11.52;2.20;;;;;;;;;;5052639;28;20089;-72
2023/01/13 07:06:12;;;;;;;13.73;2.95;;;;;;;;;;5053179;28;20048;-73
2023/01/13 07:08:38;;;;;;;17.73;3.90;;;;;;;;;;5054917;28;20178;-72
2023/01/13 07:11:05;;;;;;;20.67;3.13;;;;;;;;;;5043318;28;20044;-73
2023/01/13 07:16:15;;;;;;;21.77;4.03;;;;;;;;;;5054823;28;20048;-73
2023/01/13 07:18:41;;;;;;;14.00;2.72;;;;;;;;;;5036518;28;20748;-72
2023/01/13 07:21:09;;;;;;;17.70;3.88;;;;;;;;;;5052114;28;20059;-72
2023/01/13 07:23:36;;;;;;;14.60;3.38;;;;;;;;;;5058433;28;20564;-72
2023/01/13 07:26:02;;;;;;;14.85;3.35;;;;;;;;;;5052328;28;20044;-73
2023/01/13 07:28:29;;;;;;;24.27;4.25;;;;;;;;;;5055329;28;20460;-73
2023/01/13 07:30:55;;;;;;;19.85;2.92;;;;;;;;;;5053248;28;20182;-74
2023/01/13 07:33:22;;;;;;;17.27;3.40;;;;;;;;;;5042506;28;20083;-73
2023/01/13 07:35:48;;;;;;;19.35;3.63;;;;;;;;;;5033695;28;20048;-72
2023/01/13 07:38:15;;;;;;;21.90;3.72;;;;;;;;;;5056865;28;20056;-73
2023/01/13 07:40:41;;;;;;;13.00;2.70;;;;;;;;;;5069409;28;20127;-73
2023/01/13 07:45:57;;;;;;;12.30;3.20;;;;;;;;;;5062029;28;20691;-74
2023/01/13 07:48:23;;;;;;;14.85;3.22;;;;;;;;;;5058688;28;20059;-73
2023/01/13 07:50:49;;;;;;;12.32;3.13;;;;;;;;;;5043704;28;20095;-73
2023/01/13 07:53:15;;;;;;;19.77;3.78;;;;;;;;;;5056720;28;20113;-74
2023/01/13 07:55:42;;;;;;;18.08;3.70;;;;;;;;;;5058713;28;20051;-73
2023/01/13 07:58:08;;;;;;;20.98;4.68;;;;;;;;;;5043840;28;20565;-73
2023/01/13 08:00:35;;;;;;;24.58;4.13;;;;;;;;;;5056748;28;20071;-69
2023/01/13 08:03:01;;;;;;;19.90;3.22;;;;;;;;;;5057878;28;20450;-74
2023/01/13 08:05:27;;;;;;;19.88;3.58;;;;;;;;;;5063108;28;20036;-75
2023/01/13 08:07:56;;;;;;;24.10;4.15;;;;;;;;;;5060654;28;20048;-75
2023/01/13 08:10:22;;;;;;;20.98;4.07;;;;;;;;;;5041841;28;20055;-75
2023/01/13 08:15:33;;;;;;;14.13;3.20;;;;;;;;;;5055726;28;20440;-75
2023/01/13 08:17:59;;;;;;;18.30;3.15;;;;;;;;;;5060201;28;20060;-75
2023/01/13 08:20:26;;;;;;;21.52;3.45;;;;;;;;;;5046226;28;20130;-75
2023/01/13 08:22:56;;;;;;;19.77;2.90;;;;;;;;;;5074966;28;20101;-75
2023/01/13 08:25:22;;;;;;;18.52;3.97;;;;;;;;;;5044311;28;20053;-75
2023/01/13 08:27:49;;;;;;;20.05;2.97;;;;;;;;;;5053888;28;20114;-75
2023/01/13 08:30:15;;;;;;;16.75;3.35;;;;;;;;;;5055902;28;20062;-75
2023/01/13 08:32:45;;;;;;;19.67;3.80;;;;;;;;;;5039731;28;20048;-72
2023/01/13 08:35:11;;;;;;;22.73;4.03;;;;;;;;;;5057372;28;20484;-71
2023/01/13 08:37:37;;;;;;;27.55;5.15;;;;;;;;;;5059664;28;20040;-72
2023/01/13 08:40:04;;;;;;;33.42;3.97;;;;;;;;;;5040562;28;20040;-72
2023/01/13 08:42:31;;;;;;;23.65;3.28;;;;;;;;;;5037896;28;20821;-72
2023/01/13 08:44:58;;;;;;;17.77;4.20;;;;;;;;;;5058882;28;20589;-72
2023/01/13 08:47:24;;;;;;;24.67;5.57;;;;;;;;;;5038482;28;20066;-71
2023/01/13 08:49:50;;;;;;;30.55;4.75;;;;;;;;;;5053494;28;20052;-71
2023/01/13 08:52:16;;;;;;;17.90;3.80;;;;;;;;;;5038961;28;20044;-71
2023/01/13 08:54:42;;;;;;;31.35;4.50;;;;;;;;;;5054317;28;20095;-72
2023/01/13 08:57:08;;;;;;;26.27;5.43;;;;;;;;;;5054254;28;20052;-72
2023/01/13 08:59:34;;;;;;;20.52;3.90;;;;;;;;;;5054466;28;20126;-72
2023/01/13 09:02:01;;;;;;;25.45;4.43;;;;;;;;;;5054168;28;20048;-72
2023/01/13 09:04:27;;;;;;;22.88;3.90;;;;;;;;;;5057555;28;20047;-72
2023/01/13 09:06:54;;;;;;;17.63;3.50;;;;;;;;;;5055851;28;20144;-72
2023/01/13 09:09:21;;;;;;;30.83;4.55;;;;;;;;;;5057936;28;20032;-72
2023/01/13 09:14:36;;;;;;;22.10;4.18;;;;;;;;;;5059655;28;20080;-72
2023/01/13 09:17:03;;;;;;;17.60;3.17;;;;;;;;;;5045001;28;20056;-72
2023/01/13 09:19:29;;;;;;;26.23;4.25;;;;;;;;;;5067905;28;20082;-72
2023/01/13 09:21:56;;;;;;;30.05;3.95;;;;;;;;;;5062607;28;20061;-72
2023/01/13 09:24:23;;;;;;;36.60;4.47;;;;;;;;;;5061146;28;20045;-70
2023/01/13 09:26:49;;;;;;;24.30;3.67;;;;;;;;;;5088139;28;20051;-72
2023/01/13 09:29:15;;;;;;;33.47;4.13;;;;;;;;;;5090150;28;20036;-73
2023/01/13 09:31:42;;;;;;;19.95;4.25;;;;;;;;;;5086371;28;20160;-73
2023/01/13 09:36:56;;;;;;;27.30;4.82;;;;;;;;;;5062111;28;20044;-72
2023/01/13 09:39:22;;;;;;;27.05;4.80;;;;;;;;;;5052520;28;20048;-72
2023/01/13 09:44:43;;;;;;;15.15;3.55;;;;;;;;;;5057046;28;20536;-72
2023/01/13 09:47:17;;;;;;;20.08;3.80;;;;;;;;;;5041388;28;20101;-72
2023/01/13 09:49:43;;;;;;;7.60;2.23;;;;;;;;;;5056287;28;20155;-72
2023/01/13 09:52:19;;;;;;;22.60;3.88;;;;;;;;;;5057547;28;20201;-72
2023/01/13 09:55:02;;;;;;;22.15;3.53;;;;;;;;;;5057490;28;20043;-72
2023/01/13 09:57:32;;;;;;;22.25;3.72;;;;;;;;;;5059493;28;20044;-72
2023/01/13 09:59:58;;;;;;;14.07;4.40;;;;;;;;;;5059789;28;20441;-72
2023/01/13 10:02:39;;;;;;;23.05;3.60;;;;;;;;;;5061539;28;20044;-72
2023/01/13 10:05:32;;;;;;;32.08;4.13;;;;;;;;;;5056194;28;20048;-72
2023/01/13 10:08:03;;;;;;;34.72;4.72;;;;;;;;;;5035122;28;20498;-77
2023/01/13 10:10:36;;;;;;;29.92;3.85;;;;;;;;;;5058136;28;20500;-78
2023/01/13 10:13:18;;;;;;;21.45;4.63;;;;;;;;;;5059686;28;20051;-79
2023/01/13 10:16:03;;;;;;;21.20;4.07;;;;;;;;;;5074610;28;20779;-77
2023/01/13 10:18:48;;;;;;;21.42;3.22;;;;;;;;;;5039466;28;20060;-76
2023/01/13 10:21:20;;;;;;;13.55;2.42;;;;;;;;;;5075920;28;20036;-78
2023/01/13 10:23:47;;;;;;;18.10;3.92;;;;;;;;;;5058381;28;20044;-78
2023/01/13 10:26:16;;;;;;;23.27;3.63;;;;;;;;;;5042362;28;20075;-78
2023/01/13 10:28:50;;;;;;;17.83;3.78;;;;;;;;;;5055116;28;20054;-78
2023/01/13 10:31:16;;;;;;;23.52;4.38;;;;;;;;;;5073469;27;20052;-77
2023/01/13 10:33:42;;;;;;;31.73;4.10;;;;;;;;;;5057728;28;20044;-77
2023/01/13 10:36:13;;;;;;;19.90;3.60;;;;;;;;;;5044189;28;20044;-76
2023/01/13 10:38:43;;;;;;;20.17;3.85;;;;;;;;;;5044447;28;20040;-76
2023/01/13 10:41:18;;;;;;;24.65;4.55;;;;;;;;;;5056425;28;20055;-76
2023/01/13 10:43:56;;;;;;;13.25;2.80;;;;;;;;;;5047203;28;20051;-76
2023/01/13 10:46:22;;;;;;;12.57;2.65;;;;;;;;;;5059500;28;20041;-77
2023/01/13 10:48:54;;;;;;;22.05;4.53;;;;;;;;;;5032392;28;20032;-77
2023/01/13 10:51:23;;;;;;;26.95;3.90;;;;;;;;;;5062902;28;20044;-76
2023/01/13 10:53:51;;;;;;;24.15;5.20;;;;;;;;;;5063231;28;20040;-77
2023/01/13 10:56:18;;;;;;;13.50;3.28;;;;;;;;;;5058940;28;20240;-77
2023/01/13 10:58:44;;;;;;;16.92;3.42;;;;;;;;;;5060475;28;20052;-77
2023/01/13 11:01:19;;;;;;;17.98;3.03;;;;;;;;;;5060352;28;20380;-77
2023/01/13 11:03:46;;;;;;;26.70;5.05;;;;;;;;;;5048653;28;20052;-76
2023/01/13 11:06:22;;;;;;;16.80;3.08;;;;;;;;;;5076760;28;20086;-76
2023/01/13 11:08:49;;;;;;;18.90;3.58;;;;;;;;;;5086351;28;20043;-77
2023/01/13 11:11:39;;;;;;;19.45;3.50;;;;;;;;;;5087430;28;20114;-77
2023/01/13 11:16:56;;;;;;;21.88;3.97;;;;;;;;;;5059156;28;20077;-76
2023/01/13 11:19:23;;;;;;;16.48;3.40;;;;;;;;;;5056499;28;20688;-76
2023/01/13 11:22:00;;;;;;;25.58;3.85;;;;;;;;;;5045173;28;20115;-76
2023/01/13 11:24:35;;;;;;;14.85;2.75;;;;;;;;;;5039917;28;20104;-76
2023/01/13 11:27:17;;;;;;;15.68;2.78;;;;;;;;;;5050025;28;20052;-76
2023/01/13 11:29:55;;;;;;;21.85;5.00;;;;;;;;;;5057028;28;20502;-76
2023/01/13 11:32:22;;;;;;;23.67;3.63;;;;;;;;;;5042637;28;20040;-77
2023/01/13 11:34:53;;;;;;;20.70;3.92;;;;;;;;;;5058571;28;20102;-76
2023/01/13 11:37:22;;;;;;;26.73;3.78;;;;;;;;;;5056751;28;20056;-77
2023/01/13 11:40:08;;;;;;;21.40;5.28;;;;;;;;;;5040895;28;20136;-76
2023/01/13 11:42:41;;;;;;;16.95;3.13;;;;;;;;;;5040823;28;20141;-76
2023/01/13 11:45:15;;;;;;;22.33;3.80;;;;;;;;;;5053678;28;20476;-77
2023/01/13 11:47:43;;;;;;;28.10;4.53;;;;;;;;;;5059226;28;20047;-77
2023/01/13 11:50:24;;;;;;;24.35;4.50;;;;;;;;;;5037921;28;20044;-77
2023/01/13 11:53:06;;;;;;;11.77;2.50;;;;;;;;;;5039230;28;20055;-76
2023/01/13 11:55:49;;;;;;;18.00;3.75;;;;;;;;;;5050836;28;20045;-76
2023/01/13 11:58:24;;;;;;;26.70;3.45;;;;;;;;;;5057351;28;20040;-78
2023/01/13 12:01:10;;;;;;;12.68;2.60;;;;;;;;;;5059059;28;20048;-78
2023/01/13 12:03:42;;;;;;;28.98;4.65;;;;;;;;;;5040309;28;20047;-77
2023/01/13 12:06:15;;;;;;;30.08;4.63;;;;;;;;;;5059061;28;20132;-76
2023/01/13 12:08:47;;;;;;;25.40;4.10;;;;;;;;;;5058293;28;20043;-76
2023/01/13 12:11:29;;;;;;;25.00;4.30;;;;;;;;;;5059669;28;20082;-76
2023/01/13 12:14:24;;;;;;;11.40;2.17;;;;;;;;;;5059457;28;20043;-77
2023/01/13 12:16:50;;;;;;;13.70;2.50;;;;;;;;;;4991994;28;20143;-77
2023/01/13 12:19:19;;;;;;;20.83;3.83;;;;;;;;;;5040687;28;20048;-77
2023/01/13 12:21:57;;;;;;;16.52;3.70;;;;;;;;;;5056276;28;20560;-77
2023/01/13 12:24:26;;;;;;;17.20;3.22;;;;;;;;;;5035919;28;20045;-78
2023/01/13 12:26:58;;;;;;;18.55;3.75;;;;;;;;;;5039236;28;20071;-78
2023/01/13 12:29:33;;;;;;;19.85;3.38;;;;;;;;;;5049027;28;21629;-78
2023/01/13 12:32:01;;;;;;;26.35;3.95;;;;;;;;;;5060540;28;20040;-79
2023/01/13 12:34:46;;;;;;;26.90;3.45;;;;;;;;;;5045092;28;20499;-78
2023/01/13 12:37:18;;;;;;;27.27;4.63;;;;;;;;;;5061066;28;20044;-77
2023/01/13 12:39:50;;;;;;;26.30;3.90;;;;;;;;;;5061213;28;20036;-77
2023/01/13 12:45:09;;;;;;;22.13;3.10;;;;;;;;;;5063812;28;20044;-76
2023/01/13 12:47:42;;;;;;;21.20;3.92;;;;;;;;;;5056077;28;20162;-76
2023/01/13 12:50:24;;;;;;;20.13;3.45;;;;;;;;;;5073168;28;20055;-76
2023/01/13 12:52:51;;;;;;;20.98;3.33;;;;;;;;;;5100029;27;20044;-75
2023/01/13 12:55:20;;;;;;;19.38;2.95;;;;;;;;;;5051280;28;20079;-77
2023/01/13 12:58:05;;;;;;;20.15;2.95;;;;;;;;;;5068089;28;20467;-76
2023/01/13 13:00:37;;;;;;;23.35;3.55;;;;;;;;;;5066760;28;20115;-75
2023/01/13 13:03:15;;;;;;;17.48;2.80;;;;;;;;;;5087358;28;20140;-76
2023/01/13 13:05:59;;;;;;;26.13;3.65;;;;;;;;;;5072413;28;20063;-76
2023/01/13 13:08:40;;;;;;;10.88;2.80;;;;;;;;;;5064707;28;20032;-76
2023/01/13 13:13:58;;;;;;;17.75;2.47;;;;;;;;;;5065571;28;20171;-76
2023/01/13 13:16:28;;;;;;;16.35;3.03;;;;;;;;;;5065979;28;20211;-76
2023/01/13 13:19:13;;;;;;;29.73;4.00;;;;;;;;;;5054360;28;20060;-78
2023/01/13 13:21:57;;;;;;;18.27;2.97;;;;;;;;;;5058836;28;20036;-77
2023/01/13 13:24:24;;;;;;;20.17;2.88;;;;;;;;;;5063709;28;20037;-76
2023/01/13 13:26:50;;;;;;;14.57;3.50;;;;;;;;;;5050554;28;20041;-76
2023/01/13 13:29:44;;;;;;;18.90;3.08;;;8.30;99.90;;;;;;5050395;28;20086;-76
2023/01/13 13:32:25;;;;;;;19.85;3.28;;;;;;;;;;5064747;28;20041;-75
2023/01/13 13:34:57;;;;;;;13.93;3.13;;;;;;;;;;5064035;28;20052;-76
2023/01/13 13:48:52;;;;;;;11.55;1.98;;;;;;;;;;5064498;28;20047;-76
2023/01/13 13:51:35;;;;;;;26.20;3.35;;;;;;;;;;5063243;28;20099;-77
2023/01/13 13:54:01;;;;;;;20.90;2.83;;;;;;;;;;5061606;28;20059;-77
2023/01/13 13:56:28;;;;;;;12.77;2.58;;;;;;;;;;5054490;28;20048;-77
2023/01/13 13:58:55;;;;;;;11.57;2.70;;;;;;;;;;5082349;28;20040;-77
2023/01/13 14:01:34;;;;;;;20.50;2.80;;;;;;;;;;5051463;28;20044;-76
2023/01/13 14:04:09;;;;;;;19.58;3.72;;;;;;;;;;5046182;28;20040;-76
2023/01/13 14:06:35;;;;;;;16.88;3.08;;;;;;;;;;5049860;28;20137;-77
2023/01/13 14:09:03;;;;;;;14.43;2.72;;;;;;;;;;5063204;28;20131;-77
2023/01/13 14:11:34;;;;;;;19.17;3.13;;;;;;;;;;5065769;28;20071;-76
2023/01/13 14:14:03;;;;;;;15.43;3.00;;;;;;;;;;5062940;28;20052;-77
2023/01/13 14:16:30;;;;;;;20.80;3.15;;;;;;;;;;5050323;28;20476;-76
2023/01/13 14:18:56;;;;;;;19.83;2.95;;;;;;;;;;5051932;28;20064;-76
2023/01/13 14:21:29;;;;;;;17.80;3.03;;;;;;;;;;5046838;28;20044;-78
2023/01/13 14:24:09;;;;;;;23.80;3.95;;;;;;;;;;5051975;28;20055;-79
2023/01/13 14:26:35;;;;;;;29.45;3.35;;;;;;;;;;5055247;28;20048;-79
2023/01/13 14:29:02;;;;;;;23.55;2.88;;;;;;;;;;5071888;28;20402;-81
2023/01/13 14:31:30;;;;;;;22.30;3.13;;;;;;;;;;5056818;28;20044;-77
2023/01/13 14:34:00;;;;;;;10.35;2.88;;;;;;;;;;5084348;28;20104;-77
2023/01/13 14:36:33;;;;;;;21.45;3.00;;;;;;;;;;5080917;28;20040;-77
2023/01/13 14:39:05;;;;;;;13.30;2.35;;;;;;;;;;5069530;28;20137;-77
2023/01/13 14:41:35;;;;;;;22.30;3.35;;;;;;;;;;5063309;28;20282;-77
2023/01/13 14:44:03;;;;;;;20.17;2.55;;;;;;;;;;5049332;28;20123;-78
2023/01/13 14:46:39;;;;;;;20.60;3.22;;;;;;;;;;5052212;28;20047;-77
2023/01/13 14:49:12;;;;;;;30.92;5.15;;;;;;;;;;5081758;28;20170;-78
2023/01/13 14:51:41;;;;;;;19.63;3.65;;;;;;;;;;5067482;28;20512;-78
2023/01/13 14:54:27;;;;;;;15.23;2.55;;;;;;;;;;5064616;28;20044;-77
2023/01/13 14:57:07;;;;;;;14.30;2.67;;;;;;;;;;5060206;28;20060;-78
2023/01/13 14:59:42;;;;;;;15.07;2.40;;;;;;;;;;5057354;28;20048;-79
2023/01/13 15:02:27;;;;;;;13.32;2.75;;;;;;;;;;5064475;28;20110;-80
2023/01/13 15:04:53;;;;;;;14.75;2.13;;;;;;;;;;5043645;28;20052;-79
2023/01/13 15:07:27;;;;;;;20.85;3.33;;;;;;;;;;5060406;28;20029;-81
2023/01/13 15:09:54;;;;;;;14.00;2.47;;;;;;;;;;5050631;28;20209;-78
2023/01/13 15:12:40;;;;;;;9.80;1.92;;;;;;;;;;5063986;28;20132;-81
2023/01/13 15:15:25;;;;;;;15.68;1.95;;;;;;;;;;5052301;28;20654;-80
2023/01/13 15:17:51;;;;;;;16.67;3.03;;;;;;;;;;5057641;28;20056;-80
2023/01/13 15:20:18;;;;;;;4.40;1.20;;;;;;;;;;5049259;28;20055;-79
2023/01/13 15:22:45;;;;;;;8.60;1.42;;;;;;;;;;5028500;28;20079;-78
2023/01/13 15:25:11;;;;;;;7.03;1.25;;;;;;;;;;5040162;28;20078;-78
2023/01/13 15:27:37;;;;;;;7.93;1.00;;;;;;;;;;5040929;28;20052;-78
2023/01/13 15:30:12;;;;;;;8.82;1.80;;;;;;;;;;5016473;28;20043;-78
2023/01/13 15:32:38;;;;;;;10.43;2.58;;;;;;;;;;5028913;28;20051;-79
2023/01/13 15:35:04;;;;;;;14.07;1.60;;;;;;;;;;5026725;28;20508;-83
2023/01/13 15:37:30;;;;;;;10.18;1.63;;;;;;;;;;5047468;28;20037;-81
2023/01/13 15:39:56;;;;;;;6.78;1.77;;;;;;;;;;5026613;28;20074;-79
2023/01/13 15:47:54;;;;;;;14.38;2.58;;;;;;;;;;5034884;28;20369;-80
2023/01/13 15:50:21;;;;;;;15.80;2.10;;;;;;;;;;5044936;28;20048;-78
2023/01/13 15:52:47;;;;;;;14.27;2.85;;;;;;;;;;5040076;28;20561;-77
2023/01/13 15:55:14;;;;;;;23.88;3.58;;;;;;;;;;5033418;28;20044;-79
2023/01/13 15:57:43;;;;;;;12.32;2.00;;;;;;;;;;5033048;28;20083;-78
2023/01/13 16:00:16;;;;;;;27.48;3.53;;;;;;;;;;5047085;28;20169;-78